Time;durP1;ratioP1;P1;durP2;ratioP2;P2;SDS_P1;SDS_P2;PMS_P1;PMS_P2;Temp;Humidity;BMP_temperature;BMP_pressure;BME280_temperature;BME280_humidity;BME280_pressure;Samples;Min_cycle;Max_cycle;Signal;HPM_P1;HPM_P2
2024/01/15 00:01:36;;;;;;;;;;;;;;;-0.86;100.00;99755.13;4912382;29;20158;-75
2024/01/15 00:04:01;;;;;;;;;;;;;;;-0.93;100.00;99749.63;4902559;29;20316;-75
2024/01/15 00:06:28;;;;;;;;;;;;;;;-0.96;100.00;99747.25;4893088;29;20376;-74
2024/01/15 00:08:53;;;;;;;;;;;;;;;-0.98;100.00;99743.94;4891609;29;19920;-77
2024/01/15 00:11:19;;;;;;;;;;;;;;;-1.00;100.00;99741.47;4893020;29;19926;-78
2024/01/15 00:13:44;;;;;;;;;;;;;;;-1.02;100.00;99738.13;4884874;29;19923;-78
2024/01/15 00:16:10;;;;;;;;;;;;;;;-1.05;100.00;99737.56;4887508;29;19919;-79
2024/01/15 00:18:35;;;;;;;;;;;;;;;-1.04;100.00;99736.59;4885542;29;19931;-78
2024/01/15 00:21:00;;;;;;;;;;;;;;;-1.11;100.00;99725.81;4889008;29;19924;-78
2024/01/15 00:23:25;;;;;;;;;;;;;;;-1.10;100.00;99735.38;4888946;29;19927;-78
2024/01/15 00:25:51;;;;;;;;;;;;;;;-1.12;100.00;99719.69;4882034;29;19959;-78
2024/01/15 00:28:16;;;;;;;;;;;;;;;-1.12;100.00;99716.22;4903767;29;19912;-78
2024/01/15 00:30:59;;;;;;;;;;;;;;;-1.20;100.00;99722.25;4899431;29;19920;-78
2024/01/15 00:33:24;;;;;;;;;;;;;;;-1.24;100.00;99719.06;4882450;29;19924;-78
2024/01/15 00:35:49;;;;;;;;;;;;;;;-1.17;100.00;99714.03;4892002;29;20383;-78
2024/01/15 00:38:14;;;;;;;;;;;;;;;-1.18;100.00;99717.66;4896221;29;19924;-78
2024/01/15 00:40:40;;;;;;;;;;;;;;;-1.18;100.00;99716.84;4884575;29;19924;-79
2024/01/15 00:43:07;;;;;;;;;;;;;;;-1.25;100.00;99721.88;4887862;29;20361;-78
2024/01/15 00:45:32;;;;;;;;;;;;;;;-1.24;100.00;99713.78;4889430;29;19995;-79
2024/01/15 00:47:59;;;;;;;;;;;;;;;-1.26;100.00;99715.75;4906045;29;19916;-78
2024/01/15 00:50:24;;;;;;;;;;;;;;;-1.30;100.00;99710.91;4887479;29;19943;-79
2024/01/15 00:52:49;;;;;;;;;;;;;;;-1.34;100.00;99707.75;4883139;29;20339;-78
2024/01/15 00:55:15;;;;;;;;;;;;;;;-1.32;100.00;99710.22;4888836;29;20265;-78
2024/01/15 00:57:40;;;;;;;;;;;;;;;-1.29;100.00;99704.66;4888841;29;19970;-77
2024/01/15 01:00:06;;;;;;;;;;;;;;;-1.31;100.00;99706.63;4888163;29;19923;-78
2024/01/15 01:02:31;;;;;;;;;;;;;;;-1.34;100.00;99696.34;4879613;29;19923;-77
2024/01/15 01:04:56;;;;;;;;;;;;;;;-1.36;100.00;99696.50;4880289;29;19924;-78
2024/01/15 01:07:22;;;;;;;;;;;;;;;-1.32;100.00;99684.66;4883651;29;20424;-78
2024/01/15 01:09:48;;;;;;;;;;;;;;;-1.33;100.00;99688.28;4876530;29;20374;-78
2024/01/15 01:12:13;;;;;;;;;;;;;;;-1.39;100.00;99679.13;4880687;29;19923;-79
2024/01/15 01:14:38;;;;;;;;;;;;;;;-1.42;100.00;99675.97;4891499;29;19947;-78
2024/01/15 01:17:03;;;;;;;;;;;;;;;-1.43;100.00;99687.50;4887724;29;19931;-78
2024/01/15 01:19:30;;;;;;;;;;;;;;;-1.45;100.00;99678.91;4886979;29;19951;-78
2024/01/15 01:21:55;;;;;;;;;;;;;;;-1.48;100.00;99682.69;4883678;29;19947;-78
2024/01/15 01:24:20;;;;;;;;;;;;;;;-1.54;100.00;99678.81;4885527;29;20723;-78
2024/01/15 01:26:46;;;;;;;;;;;;;;;-1.56;100.00;99677.28;4885013;29;19955;-78
2024/01/15 01:29:11;;;;;;;;;;;;;;;-1.56;100.00;99672.00;4889859;29;19923;-78
2024/01/15 01:31:42;;;;;;;;;;;;;;;-1.63;100.00;99676.25;4881954;29;19928;-78
2024/01/15 01:34:08;;;;;;;;;;;;;;;-1.63;100.00;99670.97;4871053;29;20300;-78
2024/01/15 01:36:33;;;;;;;;;;;;;;;-1.63;100.00;99676.25;4886309;29;20026;-78
2024/01/15 01:38:58;;;;;;;;;;;;;;;-1.63;100.00;99677.06;4886248;29;19962;-77
2024/01/15 01:41:24;;;;;;;;;;;;;;;-1.69;100.00;99672.38;4884757;29;20018;-77
2024/01/15 01:43:49;;;;;;;;;;;;;;;-1.57;100.00;99670.34;4885681;29;19935;-78
2024/01/15 01:46:14;;;;;;;;;;;;;;;-1.63;100.00;99670.97;4884508;29;19924;-79
2024/01/15 01:48:39;;;;;;;;;;;;;;;-1.58;100.00;99671.31;4889281;29;19928;-78
2024/01/15 01:51:05;;;;;;;;;;;;;;;-1.66;100.00;99672.06;4882829;29;20613;-78
2024/01/15 01:53:30;;;;;;;;;;;;;;;-1.68;100.00;99674.03;4871055;29;20284;-78
2024/01/15 01:55:55;;;;;;;;;;;;;;;-1.71;100.00;99669.06;4869773;29;19934;-77
2024/01/15 01:58:25;;;;;;;;;;;;;;;-1.73;100.00;99671.81;4882677;29;20414;-76
2024/01/15 02:00:50;;;;;;;;;;;;;;;-1.70;100.00;99679.44;4882461;29;19930;-77
2024/01/15 02:03:15;;;;;;;;;;;;;;;-1.72;100.00;99678.75;4868974;29;19923;-77
2024/01/15 02:05:49;;;;;;;;;;;;;;;-1.69;100.00;99667.09;4878868;29;19924;-78
2024/01/15 02:08:14;;;;;;;;;;;;;;;-1.68;100.00;99681.97;4888611;29;20012;-77
2024/01/15 02:10:41;;;;;;;;;;;;;;;-1.69;100.00;99681.13;4871901;29;20411;-77
2024/01/15 02:13:06;;;;;;;;;;;;;;;-1.65;100.00;99680.81;4868881;29;19927;-78
2024/01/15 02:15:31;;;;;;;;;;;;;;;-1.72;100.00;99672.66;4864676;29;19930;-78
2024/01/15 02:18:00;;;;;;;;;;;;;;;-1.75;100.00;99686.97;4878542;29;19923;-79
2024/01/15 02:20:26;;;;;;;;;;;;;;;-1.82;100.00;99685.91;4878271;29;19923;-78
2024/01/15 02:22:51;;;;;;;;;;;;;;;-1.74;100.00;99683.34;4884715;29;20094;-78
2024/01/15 02:25:16;;;;;;;;;;;;;;;-1.71;100.00;99674.34;4880073;29;19928;-77
2024/01/15 02:27:41;;;;;;;;;;;;;;;-1.70;100.00;99676.81;4890485;29;19927;-78
2024/01/15 02:30:07;;;;;;;;;;;;;;;-1.63;100.00;99677.06;4887514;29;19980;-78
2024/01/15 02:32:32;;;;;;;;;;;;;;;-1.59;100.00;99673.16;4871878;29;19963;-78
2024/01/15 02:34:58;;;;;;;;;;;;;;;-1.59;100.00;99675.78;4888718;29;19928;-77
2024/01/15 02:37:23;;;;;;;;;;;;;;;-1.63;100.00;99674.41;4907344;29;19932;-77
2024/01/15 02:39:48;;;;;;;;;;;;;;;-1.64;100.00;99669.28;4904552;29;19918;-78
2024/01/15 02:42:13;;;;;;;;;;;;;;;-1.66;100.00;99669.41;4903167;29;19922;-77
2024/01/15 02:44:39;;;;;;;;;;;;;;;-1.70;100.00;99673.34;4897123;29;20013;-78
2024/01/15 02:47:04;;;;;;;;;;;;;;;-1.73;100.00;99669.19;4882922;29;20014;-78
2024/01/15 02:49:33;;;;;;;;;;;;;;;-1.68;100.00;99671.41;4877381;29;20391;-78
2024/01/15 02:52:01;;;;;;;;;;;;;;;-1.64;100.00;99667.47;4887164;23;19935;-77
2024/01/15 02:54:26;;;;;;;;;;;;;;;-1.66;100.00;99671.25;4861244;29;19928;-77
2024/01/15 02:56:51;;;;;;;;;;;;;;;-1.66;100.00;99672.06;4900203;23;19928;-78
2024/01/15 02:59:16;;;;;;;;;;;;;;;-1.69;100.00;99678.47;4894439;29;20010;-78
2024/01/15 03:01:42;;;;;;;;;;;;;;;-1.75;100.00;99678.22;4908508;23;19977;-77
2024/01/15 03:04:07;;;;;;;;;;;;;;;-1.74;100.00;99691.25;4901620;29;20403;-78
2024/01/15 03:06:32;;;;;;;;;;;;;;;-1.80;100.00;99676.03;4902174;29;19931;-77
2024/01/15 03:08:58;;;;;;;;;;;;;;;-1.81;100.00;99682.28;4919810;29;19927;-77
2024/01/15 03:11:23;;;;;;;;;;;;;;;-1.85;100.00;99683.56;4919653;29;20572;-77
2024/01/15 03:13:48;;;;;;;;;;;;;;;-1.85;100.00;99686.19;4919152;29;19932;-77
2024/01/15 03:16:13;;;;;;;;;;;;;;;-1.90;100.00;99684.00;4906414;29;19924;-78
2024/01/15 03:18:39;;;;;;;;;;;;;;;-1.85;100.00;99683.56;4899685;29;19960;-78
2024/01/15 03:21:04;;;;;;;;;;;;;;;-1.91;100.00;99694.66;4900090;29;19986;-78
2024/01/15 03:23:29;;;;;;;;;;;;;;;-1.92;100.00;99693.00;4899309;29;20300;-77
2024/01/15 03:25:55;;;;;;;;;;;;;;;-1.93;100.00;99691.34;4898508;29;19942;-77
2024/01/15 03:28:20;;;;;;;;;;;;;;;-1.95;100.00;99686.22;4899040;29;20019;-77
2024/01/15 03:30:45;;;;;;;;;;;;;;;-1.94;100.00;99689.72;4901156;29;19923;-78
2024/01/15 03:33:10;;;;;;;;;;;;;;;-1.92;100.00;99693.00;4896702;29;19983;-76
2024/01/15 03:35:35;;;;;;;;;;;;;;;-1.87;100.00;99682.84;4913707;29;19932;-77
2024/01/15 03:38:01;;;;;;;;;;;;;;;-1.86;100.00;99668.69;4918627;29;19935;-77
2024/01/15 03:40:26;;;;;;;;;;;;;;;-1.83;100.00;99671.03;4900704;29;19923;-77
2024/01/15 03:42:51;;;;;;;;;;;;;;;-1.78;100.00;99671.44;4902428;29;19923;-77
2024/01/15 03:45:19;;;;;;;;;;;;;;;-1.73;100.00;99678.91;4900020;29;19924;-78
2024/01/15 03:47:44;;;;;;;;;;;;;;;-1.72;100.00;99670.84;4898502;29;19924;-77
2024/01/15 03:50:11;;;;;;;;;;;;;;;-1.71;100.00;99664.59;4893925;29;20404;-77
2024/01/15 03:52:37;;;;;;;;;;;;;;;-1.75;100.00;99663.22;4898531;29;20026;-77
2024/01/15 03:55:03;;;;;;;;;;;;;;;-1.70;100.00;99662.81;4900618;29;19959;-77
2024/01/15 03:57:28;;;;;;;;;;;;;;;-1.71;100.00;99661.13;4901342;29;20380;-77
2024/01/15 03:59:54;;;;;;;;;;;;;;;-1.68;100.00;99661.66;4901850;29;20018;-77
2024/01/15 04:02:19;;;;;;;;;;;;;;;-1.66;100.00;99656.22;4903600;29;19963;-78
2024/01/15 04:04:44;;;;;;;;;;;;;;;-1.69;100.00;99652.09;4916763;29;19919;-77
2024/01/15 04:07:09;;;;;;;;;;;;;;;-1.69;100.00;99649.44;4903300;29;19963;-78
2024/01/15 04:09:35;;;;;;;;;;;;;;;-1.74;100.00;99650.88;4901706;29;19990;-78
2024/01/15 04:12:00;;;;;;;;;;;;;;;-1.77;100.00;99643.25;4902280;29;19923;-79
2024/01/15 04:14:25;;;;;;;;;;;;;;;-1.77;100.00;99638.81;4901288;29;20594;-78
2024/01/15 04:16:50;;;;;;;;;;;;;;;-1.80;100.00;99633.81;4899808;29;19935;-79
2024/01/15 04:19:15;;;;;;;;;;;;;;;-1.79;100.00;99634.66;4899853;29;20026;-79
2024/01/15 04:21:41;;;;;;;;;;;;;;;-1.78;100.00;99631.03;4900017;29;19966;-78
2024/01/15 04:24:06;;;;;;;;;;;;;;;-1.84;100.00;99638.53;4898685;29;19970;-78
2024/01/15 04:26:31;;;;;;;;;;;;;;;-1.84;100.00;99628.00;4892198;29;19924;-78
2024/01/15 04:28:57;;;;;;;;;;;;;;;-1.77;100.00;99627.41;4893135;29;20352;-78
2024/01/15 04:31:23;;;;;;;;;;;;;;;-1.74;100.00;99632.41;4895964;29;20333;-78
2024/01/15 04:33:48;;;;;;;;;;;;;;;-1.74;100.00;99621.84;4895562;29;19979;-77
2024/01/15 04:36:13;;;;;;;;;;;;;;;-1.74;100.00;99627.13;4898120;29;19924;-78
2024/01/15 04:38:39;;;;;;;;;;;;;;;-1.74;100.00;99620.03;4898245;29;19924;-78
2024/01/15 04:41:04;;;;;;;;;;;;;;;-1.68;100.00;99626.53;4897395;29;20388;-78
2024/01/15 04:43:29;;;;;;;;;;;;;;;-1.66;100.00;99629.03;4898036;29;19923;-78
2024/01/15 04:45:55;;;;;;;;;;;;;;;-1.65;100.00;99633.31;4898388;29;19924;-78
2024/01/15 04:48:20;;;;;;;;;;;;;;;-1.63;100.00;99631.38;4897776;29;19930;-78
2024/01/15 04:50:46;;;;;;;;;;;;;;;-1.62;100.00;99631.22;4898562;29;19962;-77
2024/01/15 04:53:11;;;;;;;;;;;;;;;-1.62;100.00;99620.66;4896120;29;20368;-78
2024/01/15 04:55:36;;;;;;;;;;;;;;;-1.59;100.00;99615.09;4897298;29;20388;-75
2024/01/15 04:58:01;;;;;;;;;;;;;;;-1.55;100.00;99612.97;4896230;29;20411;-75
2024/01/15 05:00:27;;;;;;;;;;;;;;;-1.49;100.00;99612.38;4898318;29;20396;-78
2024/01/15 05:02:52;;;;;;;;;;;;;;;-1.46;100.00;99614.72;4893873;29;20367;-77
2024/01/15 05:05:17;;;;;;;;;;;;;;;-1.47;100.00;99609.59;4896052;29;20380;-77
2024/01/15 05:07:42;;;;;;;;;;;;;;;-1.47;100.00;99607.78;4897619;29;19923;-76
2024/01/15 05:10:08;;;;;;;;;;;;;;;-1.46;100.00;99604.19;4896885;29;19930;-77
2024/01/15 05:12:33;;;;;;;;;;;;;;;-1.45;100.00;99600.56;4891329;29;20456;-77
2024/01/15 05:14:58;;;;;;;;;;;;;;;-1.50;100.00;99608.09;4898411;29;19924;-77
2024/01/15 05:17:23;;;;;;;;;;;;;;;-1.59;100.00;99601.09;4896506;29;19934;-77
2024/01/15 05:19:48;;;;;;;;;;;;;;;-1.60;100.00;99602.06;4889957;29;19931;-76
2024/01/15 05:22:24;;;;;;;;;;;;;;;-1.59;100.00;99601.91;4904293;23;20410;-76
2024/01/15 05:24:49;;;;;;;;;;;;;;;-1.58;100.00;99597.44;4890721;29;19931;-76
2024/01/15 05:27:15;;;;;;;;;;;;;;;-1.54;100.00;99596.16;4893577;29;19923;-76
2024/01/15 05:29:40;;;;;;;;;;;;;;;-1.45;100.00;99595.28;4898027;29;19931;-77
2024/01/15 05:32:08;;;;;;;;;;;;;;;-1.49;100.00;99601.84;4895511;29;19923;-76
2024/01/15 05:34:33;;;;;;;;;;;;;;;-1.47;100.00;99594.59;4896899;29;19923;-76
2024/01/15 05:36:59;;;;;;;;;;;;;;;-1.43;100.00;99595.97;4898030;29;19924;-76
2024/01/15 05:39:24;;;;;;;;;;;;;;;-1.43;100.00;99595.97;4896695;29;19923;-76
2024/01/15 05:41:49;;;;;;;;;;;;;;;-1.47;100.00;99599.88;4896440;29;19950;-76
2024/01/15 05:44:14;;;;;;;;;;;;;;;-1.43;100.00;99603.03;4898139;29;20372;-76
2024/01/15 05:46:43;;;;;;;;;;;;;;;-1.43;100.00;99593.31;4895940;29;19923;-76
2024/01/15 05:49:08;;;;;;;;;;;;;;;-1.41;100.00;99591.34;4896842;29;20250;-76
2024/01/15 05:51:33;;;;;;;;;;;;;;;-1.42;100.00;99587.06;4897213;29;19925;-77
2024/01/15 05:53:58;;;;;;;;;;;;;;;-1.44;100.00;99591.66;4897532;29;19927;-77
2024/01/15 05:56:24;;;;;;;;;;;;;;;-1.42;100.00;99583.56;4897221;29;19924;-77
2024/01/15 05:58:49;;;;;;;;;;;;;;;-1.44;100.00;99591.66;4897962;29;19931;-77
2024/01/15 06:01:14;;;;;;;;;;;;;;;-1.40;100.00;99582.44;4897437;29;19932;-77
2024/01/15 06:03:40;;;;;;;;;;;;;;;-1.38;100.00;99585.75;4897995;29;19928;-77
2024/01/15 06:06:05;;;;;;;;;;;;;;;-1.29;100.00;99588.50;4897286;29;20022;-77
2024/01/15 06:08:30;;;;;;;;;;;;;;;-1.43;100.00;99589.84;4898302;29;20328;-77
2024/01/15 06:10:56;;;;;;;;;;;;;;;-1.39;100.00;99583.28;4897638;29;19930;-77
2024/01/15 06:13:21;;;;;;;;;;;;;;;-1.49;100.00;99585.16;4880792;29;19923;-77
2024/01/15 06:15:47;;;;;;;;;;;;;;;-1.42;100.00;99588.84;4898196;29;19931;-77
2024/01/15 06:18:12;;;;;;;;;;;;;;;-1.45;100.00;99583.88;4899274;29;19927;-77
2024/01/15 06:20:41;;;;;;;;;;;;;;;-1.55;100.00;99584.78;4905672;23;19927;-76
2024/01/15 06:23:06;;;;;;;;;;;;;;;-1.57;100.00;99585.91;4887346;29;19932;-77
2024/01/15 06:25:42;;;;;;;;;;;;;;;-1.63;100.00;99582.06;4907346;29;19930;-76
2024/01/15 06:28:19;;;;;;;;;;;;;;;-1.56;100.00;99587.56;4899171;29;19931;-75
2024/01/15 06:30:50;;;;;;;;;;;;;;;-1.56;100.00;99587.56;4917166;29;19934;-76
2024/01/15 06:33:27;;;;;;;;;;;;;;;-1.59;100.00;99583.41;4910382;29;19924;-76
2024/01/15 06:35:53;;;;;;;;;;;;;;;-1.57;100.00;99588.53;4897990;29;19947;-77
2024/01/15 06:38:21;;;;;;;;;;;;;;;-1.55;100.00;99590.06;4899632;29;19931;-76
2024/01/15 06:40:48;;;;;;;;;;;;;;;-1.50;100.00;99586.97;4904855;23;20372;-76
2024/01/15 06:43:16;;;;;;;;;;;;;;;-1.45;100.00;99592.63;4893880;29;19935;-77
2024/01/15 06:45:41;;;;;;;;;;;;;;;-1.47;100.00;99591.09;4897627;29;19931;-76
2024/01/15 06:48:14;;;;;;;;;;;;;;;-1.48;100.00;99602.66;4892483;29;19923;-78
2024/01/15 06:50:39;;;;;;;;;;;;;;;-1.50;100.00;99602.81;4904591;23;20410;-78
2024/01/15 06:53:05;;;;;;;;;;;;;;;-1.50;100.00;99607.28;4896239;29;19923;-77
2024/01/15 06:55:30;;;;;;;;;;;;;;;-1.48;100.00;99606.13;4896119;29;19927;-77
2024/01/15 06:57:55;;;;;;;;;;;;;;;-1.55;100.00;99602.41;4899946;29;20336;-77
2024/01/15 07:00:20;;;;;;;;;;;;;;;-1.53;100.00;99598.66;4913459;29;19931;-78
2024/01/15 07:02:46;;;;;;;;;;;;;;;-1.55;100.00;99583.94;4912523;29;20311;-78
2024/01/15 07:05:11;;;;;;;;;;;;;;;-1.54;100.00;99593.53;4902166;29;19924;-78
2024/01/15 07:07:36;;;;;;;;;;;;;;;-1.57;100.00;99593.81;4901919;29;19965;-77
2024/01/15 07:10:03;;;;;;;;;;;;;;;-1.56;100.00;99587.56;4895983;29;20026;-78
2024/01/15 07:12:28;;;;;;;;;;;;;;;-1.53;100.00;99593.38;4890836;29;19930;-78
2024/01/15 07:14:54;;;;;;;;;;;;;;;-1.53;100.00;99582.84;4896502;29;19923;-78
2024/01/15 07:17:20;;;;;;;;;;;;;;;-1.51;100.00;99595.88;4889033;29;19924;-78
2024/01/15 07:19:46;;;;;;;;;;;;;;;-1.49;100.00;99582.50;4895986;29;19930;-77
2024/01/15 07:22:11;;;;;;;;;;;;;;;-1.48;100.00;99585.00;4896461;29;20421;-78
2024/01/15 07:24:36;;;;;;;;;;;;;;;-1.56;100.00;99582.28;4895751;29;20067;-77
2024/01/15 07:27:04;;;;;;;;;;;;;;;-1.60;100.00;99571.19;4916719;29;19915;-78
2024/01/15 07:29:29;;;;;;;;;;;;;;;-1.40;100.00;99573.69;4914578;29;19942;-77
2024/01/15 07:31:55;;;;;;;;;;;;;;;-1.54;100.00;99577.69;4909555;29;19924;-78
2024/01/15 07:34:22;;;;;;;;;;;;;;;-1.37;100.00;99576.88;4910135;29;19931;-77
2024/01/15 07:36:47;;;;;;;;;;;;;;;-1.47;100.00;99580.56;4897854;29;20015;-78
2024/01/15 07:44:23;;;;;;;;;;;;;;;-1.64;100.00;99584.84;4791490;23;1758836;-77
2024/01/15 07:46:48;;;;;;;;;;;;;;;-1.64;100.00;99582.22;4879713;29;19924;-77
2024/01/15 07:49:15;;;;;;;;;;;;;;;-1.69;100.00;99583.47;4882687;29;19980;-77
2024/01/15 07:51:44;;;;;;;;;;;;;;;-1.69;100.00;99588.75;4885445;29;19927;-77
2024/01/15 07:54:10;;;;;;;;;;;;;;;-1.66;100.00;99578.88;4895354;29;19928;-77
2024/01/15 07:56:52;;;;;;;;;;;;;;;-1.58;100.00;99576.31;4903638;29;19931;-78
2024/01/15 07:59:18;;;;;;;;;;;;;;;-1.58;100.00;99584.25;4891241;29;19943;-78
2024/01/15 08:01:43;;;;;;;;;;;;;;;-1.55;100.00;99578.66;4901132;29;19923;-78
2024/01/15 08:04:09;;;;;;;;;;;;;;;-1.48;100.00;99581.53;4889560;29;19980;-78
2024/01/15 08:06:34;;;;;;;;;;;;;;;-1.44;100.00;99577.63;4882079;29;19927;-78
2024/01/15 08:08:59;;;;;;;;;;;;;;;-1.43;100.00;99581.91;4878104;29;20372;-77
2024/01/15 08:11:24;;;;;;;;;;;;;;;-1.53;100.00;99589.91;4879428;29;19923;-78
2024/01/15 08:13:50;;;;;;;;;;;;;;;-1.55;100.00;99597.97;4873990;29;20099;-77
2024/01/15 08:16:15;;;;;;;;;;;;;;;-1.47;100.00;99591.09;4874830;29;19971;-78
2024/01/15 08:18:41;;;;;;;;;;;;;;;-1.45;100.00;99599.72;4874626;29;19931;-78
2024/01/15 08:21:07;;;;;;;;;;;;;;;-1.47;100.00;99594.59;4880119;29;19968;-78
2024/01/15 08:23:32;;;;;;;;;;;;;;;-1.45;100.00;99600.56;4879461;29;19934;-78
2024/01/15 08:25:58;;;;;;;;;;;;;;;-1.44;100.00;99593.47;4863369;29;19927;-77
2024/01/15 08:28:23;;;;;;;;;;;;;;;-1.39;100.00;99588.56;4880307;29;19963;-78
2024/01/15 08:30:48;;;;;;;;;;;;;;;-1.44;100.00;99598.72;4880956;29;19967;-78
2024/01/15 08:33:13;;;;;;;;;;;;;;;-1.43;100.00;99603.03;4879526;29;19927;-78
2024/01/15 08:35:38;;;;;;;;;;;;;;;-1.42;100.00;99602.06;4881278;29;19923;-78
2024/01/15 08:38:04;;;;;;;;;;;;;;;-1.43;100.00;99603.03;4880287;29;20029;-78
2024/01/15 08:40:29;;;;;;;;;;;;;;;-1.40;100.00;99593.00;4879941;29;19935;-78
2024/01/15 08:42:54;;;;;;;;;;;;;;;-1.43;100.00;99593.31;4880691;29;19924;-77
2024/01/15 08:45:20;;;;;;;;;;;;;;;-1.34;100.00;99601.31;4880554;29;19975;-78
2024/01/15 08:47:45;;;;;;;;;;;;;;;-1.35;100.00;99599.63;4875488;29;19927;-78
2024/01/15 08:50:10;;;;;;;;;;;;;;;-1.32;100.00;99589.59;4881634;29;19927;-78
2024/01/15 08:52:36;;;;;;;;;;;;;;;-1.29;100.00;99596.41;4880338;29;19928;-78
2024/01/15 08:55:01;;;;;;;;;;;;;;;-1.24;100.00;99594.16;4879486;29;19940;-78
2024/01/15 08:57:26;;;;;;;;;;;;;;;-1.27;100.00;99594.44;4879921;29;19923;-78
2024/01/15 09:00:13;;;;;;;;;;;;;;;-1.29;100.00;99602.50;4941989;23;20026;-78
2024/01/15 09:02:44;;;;;;;;;;;;;;;-1.31;100.00;99593.09;4897886;29;19935;-78
2024/01/15 09:05:28;;;;;;;;;;;;;;;-1.19;100.00;99568.09;4899425;29;19931;-77
2024/01/15 09:07:59;;;;;;;;;;;;;;;-1.22;100.00;99576.31;4892117;29;19928;-78
2024/01/15 09:10:24;;;;;;;;;;;;;;;-1.21;100.00;99575.34;4897765;29;19985;-77
2024/01/15 09:12:49;;;;;;;;;;;;;;;-1.26;100.00;99589.00;4900475;29;20398;-78
2024/01/15 09:15:32;;;;;;;;;;;;;;;-1.18;100.00;99588.25;4898765;29;19924;-78
2024/01/15 09:21:15;;;;;;;;;;;;;;;-1.25;100.00;99593.31;4902798;29;19930;-75
2024/01/15 09:23:41;;;;;;;;;;;;;;;-1.28;100.00;99600.72;4900434;29;19927;-76
2024/01/15 09:26:18;;;;;;;;;;;;;;;-1.26;100.00;99601.41;4899751;29;19920;-77
2024/01/15 09:28:49;;;;;;;;;;;;;;;-1.22;100.00;99605.38;4894604;29;19923;-77
2024/01/15 09:31:17;;;;;;;;;;;;;;;-1.18;100.00;99606.72;4898191;29;19915;-75
2024/01/15 09:33:45;;;;;;;;;;;;;;;-1.16;100.00;99620.63;4893601;29;20002;-77
2024/01/15 09:36:20;;;;;;;;;;;;;;;-1.11;100.00;99612.22;4897450;29;19926;-77
2024/01/15 09:39:08;;;;;;;;;;;;;;;-1.11;100.00;99610.44;4898169;29;19978;-77
2024/01/15 09:41:52;;;;;;;;;;;;;;;-1.07;100.00;99595.97;4895679;29;19974;-77
2024/01/15 09:44:32;;;;;;;;;;;;;;;-1.04;100.00;99601.88;4898404;29;19924;-77
2024/01/15 09:47:09;;;;;;;;;;;;;;;-1.22;100.00;99597.44;4894387;29;19971;-77
2024/01/15 09:49:50;;;;;;;;;;;;;;;-1.39;100.00;99601.75;4875851;29;20014;-77
2024/01/15 09:52:18;;;;;;;;;;;;;;;-1.47;100.00;99594.59;4895331;29;19920;-77
2024/01/15 09:57:25;;;;;;;;;;;;;;;-1.29;100.00;99599.88;4997794;23;19927;-76
2024/01/15 10:00:10;;;;;;;;;;;;;;;-1.24;100.00;99599.44;4879634;29;19923;-77
2024/01/15 10:02:48;;;;;;;;;;;;;;;-1.24;100.00;99610.00;4842875;29;19983;-77
2024/01/15 10:05:28;;;;;;;;;;;;;;;-1.10;100.00;99598.06;4899531;29;19958;-76
2024/01/15 10:08:12;;;;;;;;;;;;;;;-0.99;100.00;99611.03;4900115;29;19963;-76
2024/01/15 10:10:49;;;;;;;;;;;;;;;-0.92;100.00;99606.78;4900834;29;19931;-76
2024/01/15 10:13:15;;;;;;;;;;;;;;;-0.87;100.00;99611.59;4902042;29;19923;-76
2024/01/15 10:15:42;;;;;;;;;;;;;;;-0.65;100.00;99612.09;4881289;29;19962;-76
2024/01/15 10:18:08;;;;;;;;;;;;;;;-0.75;100.00;99611.38;4863260;29;19927;-76
2024/01/15 10:20:46;;;;;;;;;;;;;;;-0.68;100.00;99613.25;4899402;29;19907;-76
2024/01/15 10:23:32;;;;;;;;;;;;;;;-0.64;100.00;99608.47;4903932;29;19931;-77
2024/01/15 10:26:19;;;;;;;;;;;;;;;-0.61;100.00;99597.59;4908247;29;20164;-77
2024/01/15 10:29:00;;;;;;;;;;;;;;;-0.52;100.00;99603.75;4924148;23;19935;-77
2024/01/15 10:31:34;;;;;;;;;;;;;;;-0.60;100.00;99615.13;4900253;29;20376;-77
2024/01/15 10:34:30;;;;;;;;;;;;;;;-0.62;100.00;99617.88;4891389;29;19979;-77
2024/01/15 10:36:55;;;;;;;;;;;;;;;-0.61;100.00;99610.81;4896657;29;19923;-77
2024/01/15 10:39:36;;;;;;;;;;;;;;;-0.57;100.00;99613.97;4897805;29;19931;-77
2024/01/15 10:42:01;;;;;;;;;;;;;;;-0.49;100.00;99611.38;4891859;29;19926;-78
2024/01/15 10:44:27;;;;;;;;;;;;;;;-0.28;100.00;99613.66;4897800;29;20403;-77
2024/01/15 10:47:26;;;;;;;;;;;;;;;-0.18;100.00;99602.97;4897105;29;20388;-77
2024/01/15 10:49:55;;;;;;;;;;;;;;;-0.33;100.00;99606.19;4902572;29;19943;-78
2024/01/15 10:58:15;;;;;;;;;;;;;;;-0.29;100.00;99606.69;4901119;29;19930;-79
2024/01/15 11:03:18;;;;;;;;;;;;;;;-0.24;100.00;99609.72;4903975;23;19998;-78
2024/01/15 11:09:07;;;;;;;;;;;;;;;-0.42;100.00;99616.88;4895499;29;19931;-79
2024/01/15 11:14:54;;;;;;;;;;;;;;;-0.23;100.00;99600.78;4855222;29;20482;-79
2024/01/15 11:17:51;;;;;;;;;;;;;;;-0.24;100.00;99593.00;4897760;29;19923;-79
2024/01/15 11:23:40;;;;;;;;;;;;;;;0.22;100.00;99603.28;4915189;29;19934;-79
2024/01/15 11:26:28;;;;;;;;;;;;;;;0.43;100.00;99606.31;5157797;23;19960;-79
2024/01/15 11:29:24;;;;;;;;;;;;;;;0.44;100.00;99586.78;4900299;29;19919;-79
2024/01/15 11:41:40;;;;;;;;;;;;;;;0.57;100.00;99591.63;4900105;29;19924;-79
2024/01/15 11:47:31;;;;;;;;;;;;;;;0.44;100.00;99601.88;4902127;29;20203;-79
2024/01/15 11:50:05;;;;;;;;;;;;;;;0.23;100.00;99599.63;4917241;29;19920;-79
2024/01/15 12:26:00;;;;;;;;;;;;;;;1.15;100.00;99604.06;4897151;29;19930;-79
2024/01/15 12:41:09;;;;;;;;;;;;;;;0.40;100.00;99633.09;4895028;29;19954;-79
2024/01/15 12:43:55;;;;;;;;;;;;;;;0.43;100.00;99638.09;4897737;29;20003;-79
2024/01/15 12:54:31;;;;;;;;;;;;;;;1.52;100.00;99638.00;5003026;23;19928;-77
2024/01/15 12:57:27;;;;;;;;;;;;;;;1.01;100.00;99646.16;4900594;29;19963;-80
2024/01/15 13:24:52;;;;;;;;;;;;;;;0.07;100.00;99648.88;4856861;29;19931;-78
2024/01/15 13:27:21;;;;;;;;;;;;;;;0.93;100.00;99654.06;4858476;29;19980;-78
2024/01/15 13:30:02;;;;;;;;;;;;;;;2.27;100.00;99654.56;4853483;29;20294;-78
2024/01/15 13:32:53;;;;;;;;;;;;;;;3.26;100.00;99665.59;4852368;29;19933;-78
2024/01/15 13:35:24;;;;;;;;;;;;;;;3.48;92.76;99656.75;4858450;29;20300;-79
2024/01/15 13:38:08;;;;;;;;;;;;;;;3.34;92.47;99662.88;4851283;29;19934;-79
2024/01/15 13:40:55;;;;;;;;;;;;;;;3.72;89.89;99660.19;4938712;23;19927;-79
2024/01/15 13:43:36;;;;;;;;;;;;;;;4.20;87.19;99667.00;4897283;29;19930;-78
2024/01/15 13:49:02;;;;;;;;;;;;;;;3.15;88.77;99665.00;4949899;23;19927;-78
2024/01/15 13:52:03;;;;;;;;;;;;;;;2.79;90.50;99652.31;4896971;29;20434;-78
2024/01/15 13:55:03;;;;;;;;;;;;;;;2.45;92.88;99669.44;4898067;29;19935;-78
2024/01/15 13:58:05;;;;;;;;;;;;;;;1.63;97.33;99681.09;4899370;29;19924;-78
2024/01/15 14:01:05;;;;;;;;;;;;;;;1.32;100.00;99684.44;4898826;29;19930;-78
2024/01/15 14:04:11;;;;;;;;;;;;;;;0.86;100.00;99676.94;4900031;29;19931;-78
2024/01/15 14:07:06;;;;;;;;;;;;;;;0.67;100.00;99681.53;4879205;29;20388;-77
2024/01/15 14:10:03;;;;;;;;;;;;;;;0.71;100.00;99679.38;4899307;29;19967;-78
2024/01/15 14:12:29;;;;;;;;;;;;;;;0.71;100.00;99680.19;4908998;29;19939;-77
2024/01/15 14:15:06;;;;;;;;;;;;;;;1.04;100.00;99693.53;4916767;29;19954;-78
2024/01/15 14:17:51;;;;;;;;;;;;;;;1.29;100.00;99696.19;4899928;29;20380;-78
2024/01/15 14:20:17;;;;;;;;;;;;;;;1.30;100.00;99708.44;4896086;29;19932;-79
2024/01/15 14:23:07;;;;;;;;;;;;;;;1.30;100.00;99704.97;4815923;29;19978;-78
2024/01/15 14:25:35;;;;;;;;;;;;;;;0.98;100.00;99723.31;4894874;29;20379;-78
2024/01/15 14:28:10;;;;;;;;;;;;;;;0.84;100.00;99718.66;4893601;29;20337;-79
2024/01/15 14:31:07;;;;;;;;;;;;;;;0.60;100.00;99722.88;4897465;29;19955;-78
2024/01/15 14:33:39;;;;;;;;;;;;;;;0.30;100.00;99733.03;4895594;29;20002;-78
2024/01/15 14:36:05;;;;;;;;;;;;;;;0.06;100.00;99747.75;4991918;23;19938;-79
2024/01/15 14:38:30;;;;;;;;;;;;;;;-0.04;100.00;99747.88;4902213;29;19923;-78
2024/01/15 14:40:55;;;;;;;;;;;;;;;-0.11;100.00;99740.69;4901283;29;19919;-78
2024/01/15 14:43:22;;;;;;;;;;;;;;;-0.17;100.00;99742.97;4915210;29;19924;-80
2024/01/15 14:45:48;;;;;;;;;;;;;;;-0.16;100.00;99749.94;4906530;29;19934;-80
2024/01/15 14:48:13;;;;;;;;;;;;;;;-0.18;100.00;99732.56;4902186;29;20034;-81
2024/01/15 14:50:39;;;;;;;;;;;;;;;-0.24;100.00;99751.69;4895171;29;19962;-81
2024/01/15 14:53:04;;;;;;;;;;;;;;;-0.25;100.00;99757.94;4895876;29;19927;-80